createdAt,value
2022-11-15T00:01:54.073Z,6.51
2022-11-15T00:07:33.300Z,6.47
2022-11-15T00:12:54.732Z,6.53
2022-11-15T00:18:15.917Z,6.66
2022-11-15T00:23:36.162Z,6.71
2022-11-15T00:28:56.243Z,6.72
2022-11-15T00:34:16.479Z,6.66
2022-11-15T00:39:36.719Z,6.66
2022-11-15T00:44:56.647Z,6.62
2022-11-15T00:50:17.304Z,6.69
2022-11-15T00:55:37.778Z,6.71
2022-11-15T01:01:05.744Z,6.61
2022-11-15T01:06:26.051Z,6.67
2022-11-15T01:11:46.436Z,6.59
2022-11-15T01:17:13.599Z,6.59
2022-11-15T01:22:33.634Z,6.68
2022-11-15T01:27:53.470Z,6.70
2022-11-15T01:33:17.328Z,6.66
2022-11-15T01:38:37.512Z,6.83
2022-11-15T01:44:19.066Z,6.90
2022-11-15T01:49:42.040Z,7.12
2022-11-15T01:55:23.737Z,7.29
2022-11-15T02:00:43.750Z,7.39
2022-11-15T02:06:06.188Z,7.45
2022-11-15T02:11:26.386Z,7.47
2022-11-15T02:17:11.190Z,7.48
2022-11-15T02:22:58.454Z,7.41
2022-11-15T02:28:27.370Z,7.37
2022-11-15T02:33:59.078Z,7.29
2022-11-15T02:39:40.629Z,7.03
2022-11-15T02:45:06.308Z,6.93
2022-11-15T02:50:30.155Z,7.05
2022-11-15T02:55:52.141Z,7.26
2022-11-15T03:01:29.364Z,7.41
2022-11-15T03:06:56.908Z,7.47
2022-11-15T03:12:46.900Z,7.44
2022-11-15T03:18:34.863Z,7.55
2022-11-15T03:23:56.524Z,7.66
2022-11-15T03:29:22.969Z,7.64
2022-11-15T03:34:50.693Z,7.41
2022-11-15T03:40:11.674Z,7.51
2022-11-15T03:45:47.644Z,7.48
2022-11-15T03:51:08.169Z,7.35
2022-11-15T03:56:28.302Z,7.32
2022-11-15T04:01:48.324Z,7.32
2022-11-15T04:07:08.317Z,7.35
2022-11-15T04:12:32.122Z,7.29
2022-11-15T04:17:57.377Z,7.34
2022-11-15T04:23:36.992Z,7.31
2022-11-15T04:29:17.771Z,7.35
2022-11-15T04:34:40.448Z,7.43
2022-11-15T04:40:00.364Z,7.46
2022-11-15T04:45:20.641Z,7.45
2022-11-15T04:50:40.825Z,7.46
2022-11-15T04:56:05.424Z,7.24
2022-11-15T05:01:25.439Z,7.04
2022-11-15T05:06:50.042Z,7.04
2022-11-15T05:12:10.436Z,7.18
2022-11-15T05:17:30.323Z,7.28
2022-11-15T05:22:50.273Z,7.30
2022-11-15T05:28:10.636Z,7.29
2022-11-15T05:33:32.236Z,7.19
2022-11-15T05:38:52.740Z,7.27
2022-11-15T05:44:16.586Z,7.27
2022-11-15T05:49:47.299Z,7.21
2022-11-15T05:55:09.611Z,7.09
2022-11-15T06:00:29.615Z,6.87
2022-11-15T06:05:50.071Z,6.70
2022-11-15T06:11:23.477Z,6.59
2022-11-15T06:16:44.405Z,6.64
2022-11-15T06:22:04.325Z,6.66
2022-11-15T06:27:27.075Z,6.70
2022-11-15T06:32:47.131Z,6.83
2022-11-15T06:38:23.473Z,6.94
2022-11-15T06:43:43.594Z,7.04
2022-11-15T06:49:08.375Z,7.15
2022-11-15T06:54:30.089Z,7.28
2022-11-15T06:59:49.842Z,7.42
2022-11-15T07:05:10.032Z,7.46
2022-11-15T07:10:35.627Z,7.49
2022-11-15T07:16:03.523Z,7.54
2022-11-15T07:21:27.553Z,7.58
2022-11-15T07:26:48.002Z,7.67
2022-11-15T07:32:08.403Z,7.87
2022-11-15T07:37:29.509Z,8.06
2022-11-15T07:42:56.423Z,8.24
2022-11-15T07:48:16.840Z,8.29
2022-11-15T07:53:37.168Z,8.31
2022-11-15T07:58:58.478Z,8.45
2022-11-15T08:04:21.181Z,8.63
2022-11-15T08:09:41.207Z,8.81
2022-11-15T08:15:01.416Z,9.08
2022-11-15T08:25:52.941Z,9.67
2022-11-15T08:31:18.712Z,9.90
2022-11-15T08:36:45.765Z,10.01
2022-11-15T08:42:06.646Z,10.22
2022-11-15T08:47:27.431Z,10.42
2022-11-15T08:52:49.255Z,10.59
2022-11-15T08:58:09.553Z,10.71
2022-11-15T09:03:29.673Z,10.79
2022-11-15T09:08:49.931Z,10.86
2022-11-15T09:14:15.131Z,11.04
2022-11-15T09:19:37.995Z,11.18
2022-11-15T09:24:57.861Z,11.16
2022-11-15T09:30:18.264Z,11.32
2022-11-15T09:35:39.194Z,11.64
2022-11-15T09:41:15.095Z,11.80
2022-11-15T09:46:47.485Z,11.68
2022-11-15T09:52:09.845Z,11.69
2022-11-15T09:57:22.889Z,11.78
2022-11-15T10:02:30.478Z,11.81
2022-11-15T10:08:07.287Z,11.80
2022-11-15T10:13:17.676Z,11.77
2022-11-15T10:18:20.768Z,11.89
2022-11-15T10:23:24.014Z,11.83
2022-11-15T10:28:32.428Z,11.36
2022-11-15T10:33:39.242Z,10.91
2022-11-15T10:38:49.508Z,10.99
2022-11-15T10:44:09.630Z,11.17
2022-11-15T10:49:17.016Z,11.28
2022-11-15T10:54:42.306Z,11.38
2022-11-15T10:59:49.194Z,11.61
2022-11-15T11:04:53.679Z,11.73
2022-11-15T11:10:00.789Z,11.86
2022-11-15T11:15:10.979Z,12.11
2022-11-15T11:20:20.233Z,12.38
2022-11-15T11:25:36.590Z,12.64
2022-11-15T11:31:17.163Z,12.87
2022-11-15T11:36:34.879Z,13.01
2022-11-15T11:41:36.391Z,13.09
2022-11-15T11:53:38.753Z,12.84
2022-11-15T11:58:44.491Z,12.74
2022-11-15T12:03:53.002Z,12.69
2022-11-15T12:09:01.194Z,12.41
2022-11-15T12:14:06.826Z,12.35
2022-11-15T12:19:09.060Z,12.33
2022-11-15T12:24:20.590Z,12.29
2022-11-15T12:29:45.406Z,12.58
2022-11-15T12:34:50.185Z,12.65
2022-11-15T12:40:10.040Z,12.77
2022-11-15T12:45:29.692Z,12.90
2022-11-15T12:50:54.526Z,13.03
2022-11-15T12:56:05.226Z,13.41
2022-11-15T13:01:11.342Z,13.89
2022-11-15T13:06:38.781Z,14.09
2022-11-15T13:11:49.675Z,14.07
2022-11-15T13:16:59.875Z,13.89
2022-11-15T13:22:24.784Z,13.81
2022-11-15T13:27:26.369Z,13.86
2022-11-15T13:32:27.959Z,13.90
2022-11-15T13:37:32.119Z,13.88
2022-11-15T13:42:33.704Z,13.84
2022-11-15T13:47:35.297Z,13.87
2022-11-15T13:52:40.495Z,13.80
2022-11-15T13:58:16.253Z,13.70
2022-11-15T14:03:23.184Z,13.57
2022-11-15T14:08:25.457Z,13.41
2022-11-15T14:13:32.211Z,13.39
2022-11-15T14:18:51.928Z,13.32
2022-11-15T14:23:53.583Z,13.22
2022-11-15T14:28:55.140Z,13.21
2022-11-15T14:33:56.711Z,13.23
2022-11-15T14:38:58.356Z,13.16
2022-11-15T14:43:59.941Z,13.10
2022-11-15T14:49:01.575Z,13.09
2022-11-15T14:54:03.324Z,13.00
2022-11-15T14:59:05.072Z,12.90
2022-11-15T15:04:06.763Z,12.85
2022-11-15T15:09:08.604Z,12.81
2022-11-15T15:14:10.235Z,12.77
2022-11-15T15:19:11.811Z,12.69
2022-11-15T15:24:17.795Z,12.58
2022-11-15T15:29:19.378Z,12.53
2022-11-15T15:34:20.947Z,12.33
2022-11-15T15:39:22.511Z,12.23
2022-11-15T15:44:24.279Z,12.19
2022-11-15T15:49:25.946Z,12.18
2022-11-15T15:54:27.502Z,12.09
2022-11-15T15:59:29.170Z,11.93
2022-11-15T16:04:31.099Z,11.87
2022-11-15T16:09:54.192Z,11.82
2022-11-15T16:14:56.240Z,11.74
2022-11-15T16:19:57.798Z,11.57
2022-11-15T16:24:59.342Z,11.48
2022-11-15T16:30:00.883Z,11.46
2022-11-15T16:35:02.415Z,11.43
2022-11-15T16:40:04.278Z,11.44
2022-11-15T16:45:06.369Z,11.39
2022-11-15T16:50:23.979Z,11.35
2022-11-15T16:55:28.498Z,11.39
2022-11-15T17:00:30.208Z,11.37
2022-11-15T17:05:31.900Z,11.30
2022-11-15T17:10:40.844Z,11.27
2022-11-15T17:15:47.830Z,11.23
2022-11-15T17:20:49.372Z,11.20
2022-11-15T17:26:17.646Z,11.22
2022-11-15T17:31:20.812Z,11.21
2022-11-15T17:36:23.893Z,11.19
2022-11-15T17:41:25.528Z,11.16
2022-11-15T17:46:28.260Z,11.10
2022-11-15T17:51:29.918Z,11.04
2022-11-15T17:56:39.294Z,10.98
2022-11-15T18:01:41.871Z,10.83
2022-11-15T18:06:47.947Z,10.79
2022-11-15T18:11:51.642Z,10.84
2022-11-15T18:16:54.959Z,10.80
2022-11-15T18:21:56.783Z,10.75
2022-11-15T18:26:59.979Z,10.70
2022-11-15T18:32:04.991Z,10.69
2022-11-15T18:37:06.692Z,10.72
2022-11-15T18:42:08.287Z,10.74
2022-11-15T18:47:11.900Z,10.79
2022-11-15T18:52:13.451Z,10.77
2022-11-15T18:57:14.993Z,10.79
2022-11-15T19:02:24.372Z,10.76
2022-11-15T19:07:26.080Z,10.59
2022-11-15T19:12:27.619Z,10.60
2022-11-15T19:17:29.147Z,10.61
2022-11-15T19:22:30.684Z,10.58
2022-11-15T19:27:53.816Z,10.47
2022-11-15T19:32:55.376Z,10.50
2022-11-15T19:37:59.940Z,10.51
2022-11-15T19:43:01.583Z,10.48
2022-11-15T19:48:06.186Z,10.40
2022-11-15T19:53:07.730Z,10.32
2022-11-15T19:58:09.301Z,10.17
2022-11-15T20:03:41.904Z,10.10
2022-11-15T20:08:51.364Z,10.01
2022-11-15T20:14:02.014Z,10.00
2022-11-15T20:19:03.965Z,10.01
2022-11-15T20:24:06.125Z,10.03
2022-11-15T20:30:00.195Z,10.04
2022-11-15T20:35:12.023Z,9.92
2022-11-15T20:40:13.690Z,9.84
2022-11-15T20:45:24.811Z,9.87
2022-11-15T20:50:43.441Z,9.93
2022-11-15T20:56:11.910Z,9.95
2022-11-15T21:01:24.781Z,9.84
2022-11-15T21:06:27.513Z,9.83
2022-11-15T21:11:47.498Z,9.83
2022-11-15T21:16:48.935Z,9.80
2022-11-15T21:22:00.674Z,9.73
2022-11-15T21:27:12.104Z,9.77
2022-11-15T21:32:13.634Z,9.78
2022-11-15T21:37:41.905Z,9.76
2022-11-15T21:43:00.027Z,9.68
2022-11-15T21:48:06.557Z,9.70
2022-11-15T21:53:30.203Z,9.77
2022-11-15T21:58:42.101Z,9.79
2022-11-15T22:03:44.065Z,9.77
2022-11-15T22:08:54.125Z,9.74
2022-11-15T22:13:55.882Z,9.73
2022-11-15T22:19:06.114Z,9.76
2022-11-15T22:24:08.213Z,9.79
2022-11-15T22:29:24.109Z,9.79
2022-11-15T22:34:47.940Z,9.78
2022-11-15T22:39:49.819Z,9.82
2022-11-15T22:45:29.271Z,9.81
2022-11-15T22:50:36.067Z,9.83
2022-11-15T22:55:39.128Z,9.78
2022-11-15T23:00:42.804Z,9.69
2022-11-15T23:06:21.843Z,9.64
2022-11-15T23:11:42.058Z,9.58
2022-11-15T23:16:43.631Z,9.57
2022-11-15T23:22:05.244Z,9.42
2022-11-15T23:27:15.228Z,9.42
2022-11-15T23:32:35.525Z,9.41
2022-11-15T23:37:42.670Z,9.38
2022-11-15T23:42:54.124Z,9.47
2022-11-15T23:48:00.970Z,9.49
2022-11-15T23:53:41.916Z,9.51
2022-11-15T23:58:54.184Z,9.52
